sensor_id;sensor_type;location;lat;lon;timestamp;pressure;altitude;pressure_sealevel;temperature;humidity
59367;BME280;45163;47.690;11.770;2023-02-18T00:00:20;94186.28;;;5.72;100.00
59367;BME280;45163;47.690;11.770;2023-02-18T00:02:48;94199.59;;;5.99;100.00
59367;BME280;45163;47.690;11.770;2023-02-18T00:05:15;94190.72;;;6.20;100.00
59367;BME280;45163;47.690;11.770;2023-02-18T00:07:41;94193.81;;;6.15;100.00
59367;BME280;45163;47.690;11.770;2023-02-18T00:10:12;94187.22;;;6.12;100.00
59367;BME280;45163;47.690;11.770;2023-02-18T00:12:38;94205.03;;;6.17;100.00
59367;BME280;45163;47.690;11.770;2023-02-18T00:15:05;94195.78;;;6.32;100.00
59367;BME280;45163;47.690;11.770;2023-02-18T00:17:31;94196.16;;;6.34;100.00
59367;BME280;45163;47.690;11.770;2023-02-18T00:19:57;94202.34;;;6.38;100.00
59367;BME280;45163;47.690;11.770;2023-02-18T00:22:23;94195.03;;;6.49;100.00
59367;BME280;45163;47.690;11.770;2023-02-18T00:24:50;94191.16;;;6.58;100.00
59367;BME280;45163;47.690;11.770;2023-02-18T00:27:16;94196.56;;;7.04;100.00
59367;BME280;45163;47.690;11.770;2023-02-18T00:29:42;94196.56;;;7.01;100.00
59367;BME280;45163;47.690;11.770;2023-02-18T00:32:08;94189.97;;;6.87;100.00
59367;BME280;45163;47.690;11.770;2023-02-18T00:34:35;94180.16;;;7.47;100.00
59367;BME280;45163;47.690;11.770;2023-02-18T00:37:00;94183.03;;;8.06;100.00
59367;BME280;45163;47.690;11.770;2023-02-18T00:39:26;94182.97;;;8.17;100.00
59367;BME280;45163;47.690;11.770;2023-02-18T00:41:52;94166.03;;;7.88;100.00
59367;BME280;45163;47.690;11.770;2023-02-18T00:44:18;94166.84;;;7.81;100.00
59367;BME280;45163;47.690;11.770;2023-02-18T00:46:44;94154.94;;;7.50;100.00
59367;BME280;45163;47.690;11.770;2023-02-18T00:49:12;94158.53;;;7.15;100.00
59367;BME280;45163;47.690;11.770;2023-02-18T00:51:38;94161.31;;;6.83;100.00
59367;BME280;45163;47.690;11.770;2023-02-18T00:54:04;94164.41;;;6.74;100.00
59367;BME280;45163;47.690;11.770;2023-02-18T00:56:31;94171.78;;;6.63;100.00
59367;BME280;45163;47.690;11.770;2023-02-18T00:58:57;94163.66;;;6.48;100.00
59367;BME280;45163;47.690;11.770;2023-02-18T01:01:23;94163.25;;;6.32;100.00
59367;BME280;45163;47.690;11.770;2023-02-18T01:03:49;94165.56;;;6.19;100.00
59367;BME280;45163;47.690;11.770;2023-02-18T01:06:15;94167.84;;;6.07;100.00
59367;BME280;45163;47.690;11.770;2023-02-18T01:08:42;94163.59;;;6.02;100.00
59367;BME280;45163;47.690;11.770;2023-02-18T01:11:09;94163.91;;;5.90;100.00
59367;BME280;45163;47.690;11.770;2023-02-18T01:13:38;94163.13;;;5.86;100.00
59367;BME280;45163;47.690;11.770;2023-02-18T01:16:05;94163.13;;;5.82;100.00
59367;BME280;45163;47.690;11.770;2023-02-18T01:18:31;94158.09;;;5.77;100.00
59367;BME280;45163;47.690;11.770;2023-02-18T01:20:57;94160.00;;;5.77;100.00
59367;BME280;45163;47.690;11.770;2023-02-18T01:23:23;94159.22;;;5.80;100.00
59367;BME280;45163;47.690;11.770;2023-02-18T01:25:50;94153.81;;;5.80;100.00
59367;BME280;45163;47.690;11.770;2023-02-18T01:28:17;94155.38;;;5.88;100.00
59367;BME280;45163;47.690;11.770;2023-02-18T01:30:43;94157.75;;;5.93;100.00
59367;BME280;45163;47.690;11.770;2023-02-18T01:33:09;94148.50;;;6.08;100.00
59367;BME280;45163;47.690;11.770;2023-02-18T01:35:37;94142.31;;;6.15;100.00
59367;BME280;45163;47.690;11.770;2023-02-18T01:38:04;94147.75;;;6.15;100.00
59367;BME280;45163;47.690;11.770;2023-02-18T01:40:30;94142.72;;;6.24;100.00
59367;BME280;45163;47.690;11.770;2023-02-18T01:42:56;94140.38;;;6.22;100.00
59367;BME280;45163;47.690;11.770;2023-02-18T01:50:39;94136.53;;;6.45;100.00
59367;BME280;45163;47.690;11.770;2023-02-18T01:53:06;94134.19;;;6.40;100.00
59367;BME280;45163;47.690;11.770;2023-02-18T01:55:34;94139.22;;;6.38;100.00
59367;BME280;45163;47.690;11.770;2023-02-18T01:58:01;94148.91;;;6.35;100.00
59367;BME280;45163;47.690;11.770;2023-02-18T02:00:28;94151.63;;;6.32;100.00
59367;BME280;45163;47.690;11.770;2023-02-18T02:02:54;94144.25;;;6.25;100.00
59367;BME280;45163;47.690;11.770;2023-02-18T02:05:20;94143.88;;;6.34;100.00
59367;BME280;45163;47.690;11.770;2023-02-18T02:07:50;94145.03;;;6.51;100.00
59367;BME280;45163;47.690;11.770;2023-02-18T02:10:17;94143.09;;;6.47;100.00
59367;BME280;45163;47.690;11.770;2023-02-18T02:13:13;94141.16;;;6.37;100.00
59367;BME280;45163;47.690;11.770;2023-02-18T02:18:35;94118.69;;;6.19;100.00
59367;BME280;45163;47.690;11.770;2023-02-18T02:27:20;94111.25;;;5.84;100.00
59367;BME280;45163;47.690;11.770;2023-02-18T02:35:36;94118.88;;;5.42;100.00
59367;BME280;45163;47.690;11.770;2023-02-18T02:38:11;94121.97;;;5.37;100.00
59367;BME280;45163;47.690;11.770;2023-02-18T02:41:39;94114.16;;;5.21;100.00
59367;BME280;45163;47.690;11.770;2023-02-18T02:44:04;94118.31;;;5.05;100.00
59367;BME280;45163;47.690;11.770;2023-02-18T02:46:39;94109.00;;;4.95;100.00
59367;BME280;45163;47.690;11.770;2023-02-18T02:49:32;94107.78;;;4.82;100.00
59367;BME280;45163;47.690;11.770;2023-02-18T02:52:08;94103.06;;;4.64;100.00
59367;BME280;45163;47.690;11.770;2023-02-18T02:54:36;94101.84;;;4.58;100.00
59367;BME280;45163;47.690;11.770;2023-02-18T03:00:00;94100.56;;;4.41;100.00
59367;BME280;45163;47.690;11.770;2023-02-18T03:11:38;94113.06;;;4.12;100.00
59367;BME280;45163;47.690;11.770;2023-02-18T03:14:22;94110.34;;;4.09;100.00
59367;BME280;45163;47.690;11.770;2023-02-18T03:16:58;94114.16;;;4.04;100.00
59367;BME280;45163;47.690;11.770;2023-02-18T03:19:42;94114.59;;;4.06;100.00
59367;BME280;45163;47.690;11.770;2023-02-18T03:22:17;94120.28;;;3.97;100.00
59367;BME280;45163;47.690;11.770;2023-02-18T03:24:50;94126.13;;;4.03;100.00
59367;BME280;45163;47.690;11.770;2023-02-18T03:29:54;94120.31;;;4.01;100.00
59367;BME280;45163;47.690;11.770;2023-02-18T03:32:22;94123.44;;;4.03;100.00
59367;BME280;45163;47.690;11.770;2023-02-18T03:34:54;94129.19;;;3.98;100.00
59367;BME280;45163;47.690;11.770;2023-02-18T03:37:20;94123.34;;;3.96;100.00
59367;BME280;45163;47.690;11.770;2023-02-18T03:39:50;94114.00;;;3.86;100.00
59367;BME280;45163;47.690;11.770;2023-02-18T03:42:18;94106.94;;;3.74;100.00
59367;BME280;45163;47.690;11.770;2023-02-18T03:44:44;94101.50;;;3.71;100.00
59367;BME280;45163;47.690;11.770;2023-02-18T03:47:10;94102.28;;;3.68;100.00
59367;BME280;45163;47.690;11.770;2023-02-18T03:49:36;94097.16;;;3.59;100.00
59367;BME280;45163;47.690;11.770;2023-02-18T03:52:02;94096.19;;;3.41;100.00
59367;BME280;45163;47.690;11.770;2023-02-18T03:54:28;94100.34;;;3.31;100.00
59367;BME280;45163;47.690;11.770;2023-02-18T03:56:54;94088.69;;;3.23;100.00
59367;BME280;45163;47.690;11.770;2023-02-18T03:59:20;94097.13;;;3.18;100.00
59367;BME280;45163;47.690;11.770;2023-02-18T04:01:46;94100.13;;;3.13;100.00
59367;BME280;45163;47.690;11.770;2023-02-18T04:04:12;94103.38;;;3.26;100.00
59367;BME280;45163;47.690;11.770;2023-02-18T04:06:38;94112.69;;;3.32;100.00
59367;BME280;45163;47.690;11.770;2023-02-18T04:09:04;94112.44;;;3.44;100.00
59367;BME280;45163;47.690;11.770;2023-02-18T04:11:35;94119.03;;;3.47;100.00
59367;BME280;45163;47.690;11.770;2023-02-18T04:14:01;94115.03;;;3.37;100.00
59367;BME280;45163;47.690;11.770;2023-02-18T04:16:27;94112.19;;;3.23;100.00
59367;BME280;45163;47.690;11.770;2023-02-18T04:18:53;94120.09;;;3.09;100.00
59367;BME280;45163;47.690;11.770;2023-02-18T04:21:19;94116.09;;;2.95;100.00
59367;BME280;45163;47.690;11.770;2023-02-18T04:23:45;94121.81;;;2.90;100.00
59367;BME280;45163;47.690;11.770;2023-02-18T04:26:11;94121.75;;;2.87;100.00
59367;BME280;45163;47.690;11.770;2023-02-18T04:28:37;94119.00;;;2.83;100.00
59367;BME280;45163;47.690;11.770;2023-02-18T04:31:03;94112.00;;;2.79;100.00
59367;BME280;45163;47.690;11.770;2023-02-18T04:33:29;94117.34;;;2.75;100.00
59367;BME280;45163;47.690;11.770;2023-02-18T04:35:55;94122.56;;;2.61;100.00
59367;BME280;45163;47.690;11.770;2023-02-18T04:38:21;94119.69;;;2.50;100.00
59367;BME280;45163;47.690;11.770;2023-02-18T04:40:48;94116.88;;;2.39;100.00
59367;BME280;45163;47.690;11.770;2023-02-18T04:43:14;94124.47;;;2.34;100.00
59367;BME280;45163;47.690;11.770;2023-02-18T04:45:40;94115.41;;;2.19;100.00
59367;BME280;45163;47.690;11.770;2023-02-18T04:48:06;94120.34;;;2.17;100.00
59367;BME280;45163;47.690;11.770;2023-02-18T04:50:32;94114.09;;;2.09;100.00
59367;BME280;45163;47.690;11.770;2023-02-18T04:52:58;94123.13;;;1.97;100.00
59367;BME280;45163;47.690;11.770;2023-02-18T04:55:24;94118.47;;;1.94;100.00
59367;BME280;45163;47.690;11.770;2023-02-18T04:57:50;94121.03;;;1.87;100.00
59367;BME280;45163;47.690;11.770;2023-02-18T05:00:18;94116.59;;;1.75;100.00
59367;BME280;45163;47.690;11.770;2023-02-18T05:02:45;94125.09;;;1.78;100.00
59367;BME280;45163;47.690;11.770;2023-02-18T05:05:12;94129.00;;;1.80;100.00
59367;BME280;45163;47.690;11.770;2023-02-18T05:07:38;94127.78;;;1.78;100.00
59367;BME280;45163;47.690;11.770;2023-02-18T05:10:05;94135.09;;;1.77;100.00
59367;BME280;45163;47.690;11.770;2023-02-18T05:12:31;94136.63;;;1.78;100.00
59367;BME280;45163;47.690;11.770;2023-02-18T05:14:57;94133.88;;;1.74;100.00
59367;BME280;45163;47.690;11.770;2023-02-18T05:17:23;94138.94;;;1.76;100.00
59367;BME280;45163;47.690;11.770;2023-02-18T05:19:49;94139.47;;;1.85;100.00
59367;BME280;45163;47.690;11.770;2023-02-18T05:22:15;94147.53;;;1.85;100.00
59367;BME280;45163;47.690;11.770;2023-02-18T05:24:41;94141.97;;;1.74;100.00
59367;BME280;45163;47.690;11.770;2023-02-18T05:27:07;94133.53;;;1.76;100.00
59367;BME280;45163;47.690;11.770;2023-02-18T05:29:33;94150.09;;;1.78;100.00
59367;BME280;45163;47.690;11.770;2023-02-18T05:31:59;94146.63;;;1.78;100.00
59367;BME280;45163;47.690;11.770;2023-02-18T05:34:25;94149.13;;;1.67;100.00
59367;BME280;45163;47.690;11.770;2023-02-18T05:36:51;94141.50;;;1.49;100.00
59367;BME280;45163;47.690;11.770;2023-02-18T05:39:16;94149.31;;;1.35;100.00
59367;BME280;45163;47.690;11.770;2023-02-18T05:41:42;94149.16;;;1.28;100.00
59367;BME280;45163;47.690;11.770;2023-02-18T05:44:08;94141.03;;;1.24;100.00
59367;BME280;45163;47.690;11.770;2023-02-18T05:46:53;94142.09;;;1.20;100.00
59367;BME280;45163;47.690;11.770;2023-02-18T05:49:19;94146.22;;;1.14;100.00
59367;BME280;45163;47.690;11.770;2023-02-18T05:51:45;94145.06;;;1.15;100.00
59367;BME280;45163;47.690;11.770;2023-02-18T05:54:11;94148.75;;;1.26;100.00
59367;BME280;45163;47.690;11.770;2023-02-18T05:56:36;94141.88;;;1.29;100.00
59367;BME280;45163;47.690;11.770;2023-02-18T05:59:02;94139.69;;;1.34;100.00
59367;BME280;45163;47.690;11.770;2023-02-18T06:01:28;94133.50;;;1.34;100.00
59367;BME280;45163;47.690;11.770;2023-02-18T06:03:54;94147.53;;;1.43;100.00
59367;BME280;45163;47.690;11.770;2023-02-18T06:06:20;94139.88;;;1.45;100.00
59367;BME280;45163;47.690;11.770;2023-02-18T06:08:46;94142.50;;;1.61;100.00
59367;BME280;45163;47.690;11.770;2023-02-18T06:11:12;94141.78;;;1.64;100.00
59367;BME280;45163;47.690;11.770;2023-02-18T06:13:38;94130.50;;;1.58;100.00
59367;BME280;45163;47.690;11.770;2023-02-18T06:16:04;94127.56;;;1.44;100.00
59367;BME280;45163;47.690;11.770;2023-02-18T06:18:30;94133.03;;;1.47;100.00
59367;BME280;45163;47.690;11.770;2023-02-18T06:20:56;94132.31;;;1.51;100.00
59367;BME280;45163;47.690;11.770;2023-02-18T06:23:22;94141.03;;;1.44;100.00
59367;BME280;45163;47.690;11.770;2023-02-18T06:25:48;94132.88;;;1.40;100.00
59367;BME280;45163;47.690;11.770;2023-02-18T06:28:15;94126.88;;;1.47;100.00
59367;BME280;45163;47.690;11.770;2023-02-18T06:30:43;94134.03;;;1.39;100.00
59367;BME280;45163;47.690;11.770;2023-02-18T06:33:09;94121.22;;;1.33;100.00
59367;BME280;45163;47.690;11.770;2023-02-18T06:35:35;94122.81;;;1.37;100.00
59367;BME280;45163;47.690;11.770;2023-02-18T06:38:01;94126.66;;;1.36;100.00
59367;BME280;45163;47.690;11.770;2023-02-18T06:40:27;94120.72;;;1.46;100.00
59367;BME280;45163;47.690;11.770;2023-02-18T06:42:53;94117.13;;;1.39;100.00
59367;BME280;45163;47.690;11.770;2023-02-18T06:45:20;94121.81;;;1.45;100.00
59367;BME280;45163;47.690;11.770;2023-02-18T06:47:46;94121.50;;;1.47;100.00
59367;BME280;45163;47.690;11.770;2023-02-18T06:50:12;94132.09;;;1.59;100.00
59367;BME280;45163;47.690;11.770;2023-02-18T06:52:38;94133.19;;;1.58;100.00
59367;BME280;45163;47.690;11.770;2023-02-18T06:55:05;94135.13;;;1.58;100.00
59367;BME280;45163;47.690;11.770;2023-02-18T06:57:32;94135.13;;;1.58;100.00
59367;BME280;45163;47.690;11.770;2023-02-18T06:59:58;94142.97;;;1.66;100.00
59367;BME280;45163;47.690;11.770;2023-02-18T07:02:24;94144.88;;;1.66;100.00
59367;BME280;45163;47.690;11.770;2023-02-18T07:04:50;94135.56;;;1.60;100.00
59367;BME280;45163;47.690;11.770;2023-02-18T07:07:16;94135.06;;;1.54;100.00
59367;BME280;45163;47.690;11.770;2023-02-18T07:09:42;94131.59;;;1.54;100.00
59367;BME280;45163;47.690;11.770;2023-02-18T07:12:08;94127.88;;;1.62;100.00
59367;BME280;45163;47.690;11.770;2023-02-18T07:14:34;94133.94;;;1.78;100.00
59367;BME280;45163;47.690;11.770;2023-02-18T07:17:00;94131.13;;;2.17;100.00
59367;BME280;45163;47.690;11.770;2023-02-18T07:19:25;94139.13;;;2.63;100.00
59367;BME280;45163;47.690;11.770;2023-02-18T07:21:51;94133.72;;;3.19;100.00
59367;BME280;45163;47.690;11.770;2023-02-18T07:24:19;94130.31;;;3.97;100.00
59367;BME280;45163;47.690;11.770;2023-02-18T07:26:44;94131.53;;;4.55;100.00
59367;BME280;45163;47.690;11.770;2023-02-18T07:29:10;94123.09;;;5.33;100.00
59367;BME280;45163;47.690;11.770;2023-02-18T07:31:36;94123.31;;;6.01;100.00
59367;BME280;45163;47.690;11.770;2023-02-18T07:34:03;94115.22;;;6.40;100.00
59367;BME280;45163;47.690;11.770;2023-02-18T07:36:29;94110.16;;;6.60;100.00
59367;BME280;45163;47.690;11.770;2023-02-18T07:38:55;94099.31;;;5.95;100.00
59367;BME280;45163;47.690;11.770;2023-02-18T07:41:21;94098.47;;;5.81;100.00
59367;BME280;45163;47.690;11.770;2023-02-18T07:43:48;94090.31;;;5.63;100.00
59367;BME280;45163;47.690;11.770;2023-02-18T07:46:14;94086.84;;;5.69;100.00
59367;BME280;45163;47.690;11.770;2023-02-18T07:48:41;94083.38;;;5.69;100.00
59367;BME280;45163;47.690;11.770;2023-02-18T07:51:08;94073.66;;;5.54;100.00
59367;BME280;45163;47.690;11.770;2023-02-18T07:53:36;94068.19;;;5.29;100.00
59367;BME280;45163;47.690;11.770;2023-02-18T07:56:02;94063.09;;;5.16;100.00
59367;BME280;45163;47.690;11.770;2023-02-18T07:58:31;94068.09;;;5.04;100.00
59367;BME280;45163;47.690;11.770;2023-02-18T08:00:57;94069.94;;;4.85;100.00
59367;BME280;45163;47.690;11.770;2023-02-18T08:03:26;94074.81;;;5.60;100.00
59367;BME280;45163;47.690;11.770;2023-02-18T08:05:53;94074.94;;;6.53;100.00
59367;BME280;45163;47.690;11.770;2023-02-18T08:08:22;94066.72;;;6.81;100.00
59367;BME280;45163;47.690;11.770;2023-02-18T08:10:49;94066.25;;;7.11;100.00
59367;BME280;45163;47.690;11.770;2023-02-18T08:13:16;94058.09;;;7.15;100.00
59367;BME280;45163;47.690;11.770;2023-02-18T08:15:42;94062.34;;;7.19;100.00
59367;BME280;45163;47.690;11.770;2023-02-18T08:18:14;94063.13;;;7.20;100.00
59367;BME280;45163;47.690;11.770;2023-02-18T08:20:40;94061.06;;;7.45;100.00
59367;BME280;45163;47.690;11.770;2023-02-18T08:23:06;94059.13;;;8.09;100.00
59367;BME280;45163;47.690;11.770;2023-02-18T08:25:32;94054.56;;;8.43;100.00
59367;BME280;45163;47.690;11.770;2023-02-18T08:27:58;94045.56;;;9.56;100.00
59367;BME280;45163;47.690;11.770;2023-02-18T08:30:25;94038.38;;;9.96;100.00
59367;BME280;45163;47.690;11.770;2023-02-18T08:32:51;94031.72;;;9.74;100.00
59367;BME280;45163;47.690;11.770;2023-02-18T08:35:17;94022.31;;;9.17;100.00
59367;BME280;45163;47.690;11.770;2023-02-18T08:37:43;94027.28;;;9.26;100.00
59367;BME280;45163;47.690;11.770;2023-02-18T08:40:10;94030.13;;;9.46;100.00
59367;BME280;45163;47.690;11.770;2023-02-18T08:42:36;94030.53;;;9.44;100.00
59367;BME280;45163;47.690;11.770;2023-02-18T08:45:03;94023.50;;;10.01;100.00
59367;BME280;45163;47.690;11.770;2023-02-18T08:47:29;94023.16;;;10.26;100.00
59367;BME280;45163;47.690;11.770;2023-02-18T08:49:55;94026.22;;;10.28;100.00
59367;BME280;45163;47.690;11.770;2023-02-18T08:52:21;94015.75;;;10.70;100.00
59367;BME280;45163;47.690;11.770;2023-02-18T08:54:47;94001.94;;;11.57;100.00
59367;BME280;45163;47.690;11.770;2023-02-18T08:57:13;94004.19;;;11.06;100.00
59367;BME280;45163;47.690;11.770;2023-02-18T08:59:40;94005.66;;;11.30;100.00
59367;BME280;45163;47.690;11.770;2023-02-18T09:02:06;94008.31;;;11.34;100.00
59367;BME280;45163;47.690;11.770;2023-02-18T09:04:32;93999.75;;;12.37;100.00
59367;BME280;45163;47.690;11.770;2023-02-18T09:06:58;93989.13;;;13.30;100.00
59367;BME280;45163;47.690;11.770;2023-02-18T09:09:24;93990.41;;;13.80;100.00
59367;BME280;45163;47.690;11.770;2023-02-18T09:11:50;93989.13;;;14.92;100.00
59367;BME280;45163;47.690;11.770;2023-02-18T09:14:16;93981.63;;;14.70;100.00
59367;BME280;45163;47.690;11.770;2023-02-18T09:16:42;93969.06;;;15.48;100.00
59367;BME280;45163;47.690;11.770;2023-02-18T09:19:08;93964.72;;;15.38;100.00
59367;BME280;45163;47.690;11.770;2023-02-18T09:21:35;93957.81;;;15.33;100.00
59367;BME280;45163;47.690;11.770;2023-02-18T09:24:00;93954.75;;;14.53;100.00
59367;BME280;45163;47.690;11.770;2023-02-18T09:26:26;93956.78;;;14.96;100.00
59367;BME280;45163;47.690;11.770;2023-02-18T09:28:54;93960.44;;;15.15;100.00
59367;BME280;45163;47.690;11.770;2023-02-18T09:31:23;93960.81;;;16.10;100.00
59367;BME280;45163;47.690;11.770;2023-02-18T09:33:54;93958.22;;;16.93;100.00
59367;BME280;45163;47.690;11.770;2023-02-18T09:36:20;93948.34;;;17.56;100.00
59367;BME280;45163;47.690;11.770;2023-02-18T09:38:47;93946.53;;;17.96;100.00
59367;BME280;45163;47.690;11.770;2023-02-18T09:41:43;93938.75;;;18.18;100.00
59367;BME280;45163;47.690;11.770;2023-02-18T09:44:26;93933.91;;;18.37;100.00
59367;BME280;45163;47.690;11.770;2023-02-18T09:47:10;93927.69;;;18.75;100.00
59367;BME280;45163;47.690;11.770;2023-02-18T09:49:40;93919.56;;;20.14;100.00
59367;BME280;45163;47.690;11.770;2023-02-18T09:52:15;93925.84;;;20.14;84.66
59367;BME280;45163;47.690;11.770;2023-02-18T09:54:43;93907.25;;;20.35;82.88
59367;BME280;45163;47.690;11.770;2023-02-18T10:00:13;93907.69;;;20.28;79.61
59367;BME280;45163;47.690;11.770;2023-02-18T10:02:53;93902.34;;;20.45;67.65
59367;BME280;45163;47.690;11.770;2023-02-18T10:05:20;93889.75;;;20.44;66.07
59367;BME280;45163;47.690;11.770;2023-02-18T10:07:47;93884.50;;;21.65;58.84
59367;BME280;45163;47.690;11.770;2023-02-18T10:10:43;93890.56;;;21.95;55.55
59367;BME280;45163;47.690;11.770;2023-02-18T10:13:17;93881.91;;;22.19;57.06
59367;BME280;45163;47.690;11.770;2023-02-18T10:15:44;93871.06;;;22.27;55.69
59367;BME280;45163;47.690;11.770;2023-02-18T10:18:32;93863.78;;;22.29;44.19
59367;BME280;45163;47.690;11.770;2023-02-18T10:21:08;93869.16;;;22.07;49.39
59367;BME280;45163;47.690;11.770;2023-02-18T10:23:38;93856.09;;;21.81;56.95
59367;BME280;45163;47.690;11.770;2023-02-18T10:26:10;93856.59;;;21.80;46.31
59367;BME280;45163;47.690;11.770;2023-02-18T10:28:37;93853.50;;;22.09;46.06
59367;BME280;45163;47.690;11.770;2023-02-18T10:31:09;93847.78;;;20.77;50.58
59367;BME280;45163;47.690;11.770;2023-02-18T10:33:44;93847.78;;;20.77;51.25
59367;BME280;45163;47.690;11.770;2023-02-18T10:36:30;93838.41;;;21.47;48.32
59367;BME280;45163;47.690;11.770;2023-02-18T10:39:10;93827.59;;;20.77;49.42
59367;BME280;45163;47.690;11.770;2023-02-18T10:42:14;93825.28;;;21.22;52.30
59367;BME280;45163;47.690;11.770;2023-02-18T10:50:12;93811.25;;;22.00;42.57
59367;BME280;45163;47.690;11.770;2023-02-18T10:52:46;93805.25;;;21.70;44.56
59367;BME280;45163;47.690;11.770;2023-02-18T10:55:16;93787.19;;;23.50;40.22
59367;BME280;45163;47.690;11.770;2023-02-18T10:57:46;93792.38;;;22.80;44.34
59367;BME280;45163;47.690;11.770;2023-02-18T11:02:42;93779.56;;;23.39;39.95
59367;BME280;45163;47.690;11.770;2023-02-18T11:05:26;93773.25;;;23.55;42.28
59367;BME280;45163;47.690;11.770;2023-02-18T11:07:54;93760.00;;;24.01;35.47
59367;BME280;45163;47.690;11.770;2023-02-18T11:10:25;93762.69;;;24.34;33.09
59367;BME280;45163;47.690;11.770;2023-02-18T11:13:02;93763.47;;;24.88;32.03
59367;BME280;45163;47.690;11.770;2023-02-18T11:15:29;93755.66;;;24.80;37.33
59367;BME280;45163;47.690;11.770;2023-02-18T11:17:57;93751.34;;;24.74;39.76
59367;BME280;45163;47.690;11.770;2023-02-18T11:20:32;93742.81;;;24.60;34.92
59367;BME280;45163;47.690;11.770;2023-02-18T11:23:15;93733.03;;;24.84;34.67
59367;BME280;45163;47.690;11.770;2023-02-18T11:25:54;93728.47;;;24.81;35.53
59367;BME280;45163;47.690;11.770;2023-02-18T11:28:45;93718.81;;;25.23;30.75
59367;BME280;45163;47.690;11.770;2023-02-18T11:31:23;93702.47;;;25.33;29.84
59367;BME280;45163;47.690;11.770;2023-02-18T11:33:52;93707.53;;;25.89;28.56
59367;BME280;45163;47.690;11.770;2023-02-18T11:36:24;93702.03;;;26.83;29.48
59367;BME280;45163;47.690;11.770;2023-02-18T11:39:00;93676.13;;;26.64;24.88
59367;BME280;45163;47.690;11.770;2023-02-18T11:41:33;93689.59;;;25.79;28.10
59367;BME280;45163;47.690;11.770;2023-02-18T11:44:00;93679.69;;;25.78;27.72
59367;BME280;45163;47.690;11.770;2023-02-18T11:46:27;93687.50;;;25.85;28.12
59367;BME280;45163;47.690;11.770;2023-02-18T11:48:54;93672.31;;;26.62;25.10
59367;BME280;45163;47.690;11.770;2023-02-18T11:51:26;93674.34;;;26.42;26.43
59367;BME280;45163;47.690;11.770;2023-02-18T11:56:32;93686.31;;;24.43;26.46
59367;BME280;45163;47.690;11.770;2023-02-18T11:58:59;93672.28;;;24.60;27.89
59367;BME280;45163;47.690;11.770;2023-02-18T12:04:13;93664.06;;;24.73;27.72
59367;BME280;45163;47.690;11.770;2023-02-18T12:09:53;93654.84;;;23.90;28.32
59367;BME280;45163;47.690;11.770;2023-02-18T12:12:15;93644.53;;;23.57;28.96
59367;BME280;45163;47.690;11.770;2023-02-18T12:14:43;93646.16;;;22.91;28.22
59367;BME280;45163;47.690;11.770;2023-02-18T12:22:44;93645.34;;;23.35;27.68
59367;BME280;45163;47.690;11.770;2023-02-18T12:33:55;93623.94;;;24.41;25.90
59367;BME280;45163;47.690;11.770;2023-02-18T12:39:24;93607.75;;;24.69;25.25
59367;BME280;45163;47.690;11.770;2023-02-18T12:44:51;93620.69;;;23.73;26.90
59367;BME280;45163;47.690;11.770;2023-02-18T13:00:38;93592.50;;;22.45;27.91
59367;BME280;45163;47.690;11.770;2023-02-18T13:11:00;93584.91;;;22.85;27.46
59367;BME280;45163;47.690;11.770;2023-02-18T13:13:34;93586.28;;;23.53;27.44
59367;BME280;45163;47.690;11.770;2023-02-18T13:16:15;93582.59;;;23.17;27.27
59367;BME280;45163;47.690;11.770;2023-02-18T13:18:53;93587.16;;;23.20;26.70
59367;BME280;45163;47.690;11.770;2023-02-18T13:21:24;93578.59;;;22.90;26.55
59367;BME280;45163;47.690;11.770;2023-02-18T13:24:05;93584.91;;;22.57;27.18
59367;BME280;45163;47.690;11.770;2023-02-18T13:26:34;93581.13;;;22.94;27.01
59367;BME280;45163;47.690;11.770;2023-02-18T13:31:41;93555.31;;;22.93;27.20
59367;BME280;45163;47.690;11.770;2023-02-18T13:39:54;93560.03;;;23.96;27.09
59367;BME280;45163;47.690;11.770;2023-02-18T13:42:31;93559.25;;;23.95;27.03
59367;BME280;45163;47.690;11.770;2023-02-18T13:55:39;93573.78;;;22.96;27.65
59367;BME280;45163;47.690;11.770;2023-02-18T13:59:09;93557.84;;;22.35;29.46
59367;BME280;45163;47.690;11.770;2023-02-18T14:03:50;93566.03;;;21.73;30.69
59367;BME280;45163;47.690;11.770;2023-02-18T14:06:20;93559.59;;;21.33;30.65
59367;BME280;45163;47.690;11.770;2023-02-18T14:08:48;93558.44;;;21.08;31.09
59367;BME280;45163;47.690;11.770;2023-02-18T14:13:55;93559.00;;;20.75;31.84
59367;BME280;45163;47.690;11.770;2023-02-18T14:19:38;93556.28;;;19.92;31.92
59367;BME280;45163;47.690;11.770;2023-02-18T14:22:23;93568.44;;;19.74;33.37
59367;BME280;45163;47.690;11.770;2023-02-18T14:24:56;93576.59;;;19.22;34.28
59367;BME280;45163;47.690;11.770;2023-02-18T14:27:25;93567.78;;;18.82;34.95
59367;BME280;45163;47.690;11.770;2023-02-18T14:29:51;93569.19;;;19.13;35.47
59367;BME280;45163;47.690;11.770;2023-02-18T14:32:19;93574.75;;;19.33;35.44
59367;BME280;45163;47.690;11.770;2023-02-18T14:37:43;93578.75;;;18.77;35.55
59367;BME280;45163;47.690;11.770;2023-02-18T14:43:31;93577.78;;;18.00;37.09
59367;BME280;45163;47.690;11.770;2023-02-18T14:51:23;93580.97;;;17.69;37.91
59367;BME280;45163;47.690;11.770;2023-02-18T14:53:50;93577.91;;;17.67;38.53
59367;BME280;45163;47.690;11.770;2023-02-18T14:56:19;93574.31;;;17.76;38.66
59367;BME280;45163;47.690;11.770;2023-02-18T14:58:47;93574.25;;;18.14;37.90
59367;BME280;45163;47.690;11.770;2023-02-18T15:03:49;93578.91;;;18.88;37.98
59367;BME280;45163;47.690;11.770;2023-02-18T15:08:57;93582.75;;;17.72;40.44
59367;BME280;45163;47.690;11.770;2023-02-18T15:11:35;93579.34;;;17.38;44.18
59367;BME280;45163;47.690;11.770;2023-02-18T15:14:09;93589.13;;;17.01;47.83
59367;BME280;45163;47.690;11.770;2023-02-18T15:16:39;93596.03;;;16.96;49.72
59367;BME280;45163;47.690;11.770;2023-02-18T15:19:12;93598.34;;;16.64;51.81